Time;durP1;ratioP1;P1;durP2;ratioP2;P2;SDS_P1;SDS_P2;PMS_P1;PMS_P2;Temp;Humidity;BMP_temperature;BMP_pressure;BME280_temperature;BME280_humidity;BME280_pressure;Samples;Min_cycle;Max_cycle;Signal;HPM_P1;HPM_P2
2022/12/27 00:01:52;;;;;;;10.13;2.43;;;4.60;99.90;;;;;;5006981;28;20273;-88
2022/12/27 00:04:18;;;;;;;5.53;2.30;;;4.60;99.90;;;;;;5004058;28;20232;-88
2022/12/27 00:06:43;;;;;;;11.97;2.70;;;4.60;99.90;;;;;;5015814;28;20541;-88
2022/12/27 00:09:12;;;;;;;7.83;3.03;;;4.60;99.90;;;;;;5015290;28;20742;-88
2022/12/27 00:11:41;;;;;;;14.25;2.97;;;4.60;99.90;;;;;;5014969;28;20175;-87
2022/12/27 00:14:14;;;;;;;4.85;2.25;;;4.60;1.00;;;;;;5011461;28;20237;-88
2022/12/27 00:16:39;;;;;;;9.70;3.10;;;4.60;1.00;;;;;;5015275;28;20194;-88
2022/12/27 00:19:08;;;;;;;8.57;2.97;;;4.60;1.00;;;;;;4996889;28;20254;-88
2022/12/27 00:21:35;;;;;;;6.68;2.40;;;4.60;1.00;;;;;;4996988;28;20680;-87
2022/12/27 00:24:00;;;;;;;5.75;2.58;;;4.60;1.00;;;;;;5003417;28;20214;-88
2022/12/27 00:26:31;;;;;;;10.43;2.33;;;4.60;1.00;;;;;;5006773;28;20701;-88
2022/12/27 00:28:57;;;;;;;6.05;2.80;;;4.60;1.00;;;;;;5000570;28;20226;-88
2022/12/27 00:31:26;;;;;;;7.65;3.80;;;4.60;1.00;;;;;;5014471;28;20266;-87
2022/12/27 00:33:54;;;;;;;9.52;2.88;;;4.60;1.00;;;;;;5008284;28;20190;-88
2022/12/27 00:36:22;;;;;;;15.43;3.70;;;4.60;1.00;;;;;;5005621;28;20194;-88
2022/12/27 00:38:49;;;;;;;4.70;2.00;;;4.60;1.00;;;;;;5014208;28;20199;-88
2022/12/27 00:41:18;;;;;;;12.35;2.95;;;4.60;1.00;;;;;;4994718;28;20270;-88
2022/12/27 00:43:46;;;;;;;7.93;2.83;;;4.60;1.00;;;;;;5010217;28;20191;-88
2022/12/27 00:46:12;;;;;;;6.43;2.58;;;4.60;1.00;;;;;;5014543;28;20655;-88
2022/12/27 00:48:38;;;;;;;7.47;2.80;;;4.70;1.00;;;;;;5010647;28;20213;-88
2022/12/27 00:51:07;;;;;;;6.65;3.45;;;4.70;31.60;;;;;;4994634;28;20438;-88
2022/12/27 00:53:35;;;;;;;4.45;2.60;;;4.70;59.60;;;;;;5002965;28;20682;-88
2022/12/27 00:56:06;;;;;;;6.03;3.25;;;4.70;59.70;;;;;;5012468;28;20190;-87
2022/12/27 00:58:38;;;;;;;8.05;2.67;;;4.70;37.00;;;;;;5002476;28;20758;-88
2022/12/27 01:01:12;;;;;;;10.88;3.15;;;4.70;99.90;;;;;;5008656;28;20666;-88
2022/12/27 01:03:38;;;;;;;11.35;2.53;;;4.70;99.90;;;;;;5005145;28;20187;-89
2022/12/27 01:06:10;;;;;;;6.40;2.45;;;4.70;99.90;;;;;;5004626;28;20211;-87
2022/12/27 01:08:36;;;;;;;14.00;2.38;;;4.70;99.90;;;;;;5012364;28;20199;-88
2022/12/27 01:11:02;;;;;;;8.32;3.03;;;4.80;99.90;;;;;;5019946;28;20281;-88
2022/12/27 01:13:32;;;;;;;4.82;2.30;;;4.80;99.90;;;;;;5001965;28;20187;-88
2022/12/27 01:15:57;;;;;;;13.82;3.00;;;4.90;99.90;;;;;;4997929;28;20664;-87
2022/12/27 01:18:23;;;;;;;15.83;2.87;;;5.00;99.90;;;;;;5013842;28;20285;-90
2022/12/27 01:20:49;;;;;;;8.27;2.23;;;5.10;99.90;;;;;;5007914;28;20187;-87
2022/12/27 01:23:14;;;;;;;9.67;2.03;;;5.00;99.90;;;;;;5013250;28;20289;-87
2022/12/27 01:25:40;;;;;;;5.43;2.63;;;5.00;99.90;;;;;;5003577;28;20213;-88
2022/12/27 01:28:05;;;;;;;4.50;2.37;;;5.00;99.90;;;;;;4996191;28;20214;-88
2022/12/27 01:30:31;;;;;;;6.70;2.40;;;5.10;99.90;;;;;;5001538;28;20184;-88
2022/12/27 01:32:56;;;;;;;2.73;1.63;;;5.00;99.90;;;;;;5013198;28;20184;-88
2022/12/27 01:35:22;;;;;;;8.90;2.47;;;5.00;99.90;;;;;;4997379;28;20183;-87
2022/12/27 01:37:48;;;;;;;9.40;2.27;;;5.00;99.90;;;;;;5013458;28;20216;-88
2022/12/27 01:40:14;;;;;;;3.93;2.17;;;5.00;99.90;;;;;;5010441;28;20446;-88
2022/12/27 01:42:54;;;;;;;5.97;2.53;;;5.00;99.90;;;;;;5012807;28;20182;-87
2022/12/27 01:45:23;;;;;;;5.60;2.15;;;4.90;99.90;;;;;;5009899;28;20278;-88
2022/12/27 01:48:08;;;;;;;12.30;5.00;;;5.00;99.90;;;;;;5014688;28;20249;-90
2022/12/27 01:50:58;;;;;;;9.18;2.67;;;4.90;99.90;;;;;;4993389;28;20203;-89
2022/12/27 01:53:38;;;;;;;9.20;2.20;;;4.90;99.90;;;;;;5029685;28;20194;-87
2022/12/27 01:56:08;;;;;;;5.10;2.42;;;4.90;99.90;;;;;;5009096;28;20190;-88
2022/12/27 01:58:55;;;;;;;2.90;1.90;;;4.90;99.90;;;;;;4999965;28;20199;-88
2022/12/27 02:01:28;;;;;;;7.78;2.75;;;4.90;99.90;;;;;;5009182;28;20244;-87
2022/12/27 02:03:58;;;;;;;8.50;2.67;;;4.90;99.90;;;;;;4999298;28;20192;-88
2022/12/27 02:06:26;;;;;;;5.80;2.50;;;4.90;99.90;;;;;;4991501;28;20179;-88
2022/12/27 02:08:58;;;;;;;10.43;2.10;;;4.90;99.90;;;;;;5012929;28;20202;-88
2022/12/27 02:14:20;;;;;;;11.48;3.13;;;4.90;99.90;;;;;;5008874;28;20213;-87
2022/12/27 02:16:46;;;;;;;7.82;2.55;;;4.90;99.90;;;;;;5011570;28;20210;-88
2022/12/27 02:19:40;;;;;;;8.73;2.53;;;4.90;99.90;;;;;;5011853;28;20690;-88
2022/12/27 02:22:14;;;;;;;7.25;2.30;;;4.90;99.90;;;;;;4999885;28;20183;-88
2022/12/27 02:24:56;;;;;;;3.80;2.25;;;4.90;99.90;;;;;;5012371;28;20199;-88
2022/12/27 02:27:38;;;;;;;7.63;2.20;;;4.90;99.90;;;;;;5000337;28;20187;-87
2022/12/27 02:30:06;;;;;;;5.85;2.42;;;4.90;99.90;;;;;;5003255;28;20203;-88
2022/12/27 02:32:55;;;;;;;4.50;2.90;;;4.90;99.90;;;;;;5010288;28;20555;-87
2022/12/27 02:35:30;;;;;;;11.93;3.00;;;5.00;99.90;;;;;;5007381;28;20179;-88
2022/12/27 02:38:11;;;;;;;9.40;2.90;;;5.00;99.90;;;;;;5012338;28;20202;-88
2022/12/27 02:53:04;;;;;;;9.98;3.30;;;5.00;99.90;;;;;;5004300;28;20560;-88
2022/12/27 02:59:04;;;;;;;8.50;2.50;;;5.00;99.90;;;;;;5011250;28;20342;-88
2022/12/27 03:05:30;;;;;;;5.78;2.55;;;5.00;99.90;;;;;;5010048;28;20228;-87
2022/12/27 03:08:36;;;;;;;6.95;2.35;;;5.00;99.90;;;;;;5008567;28;20582;-88
2022/12/27 03:16:59;;;;;;;7.00;2.20;;;4.90;99.90;;;;;;4997707;28;20202;-88
2022/12/27 03:25:27;;;;;;;5.22;2.90;;;5.00;1.00;;;;;;5004781;28;20253;-88
2022/12/27 03:33:40;;;;;;;6.88;2.80;;;5.00;1.00;;;;;;5009030;28;20237;-89
2022/12/27 03:39:15;;;;;;;6.13;3.03;;;5.00;1.00;;;;;;5004903;28;20229;-87
2022/12/27 03:44:34;;;;;;;10.45;2.60;;;5.00;1.00;;;;;;5009176;28;20286;-88
2022/12/27 03:47:32;;;;;;;13.63;3.23;;;5.00;1.00;;;;;;5003405;28;20265;-88
2022/12/27 03:50:09;;;;;;;8.52;2.67;;;5.00;1.00;;;;;;5006005;28;20245;-87
2022/12/27 03:52:47;;;;;;;5.50;2.33;;;5.00;1.00;;;;;;5009668;28;20650;-88
2022/12/27 03:55:15;;;;;;;7.90;2.65;;;5.00;1.00;;;;;;5010083;28;20178;-88
2022/12/27 03:57:41;;;;;;;5.72;2.10;;;5.00;1.00;;;;;;5007478;28;20193;-88
2022/12/27 04:00:07;;;;;;;10.07;2.55;;;5.00;1.00;;;;;;4995044;28;20533;-88
2022/12/27 04:02:35;;;;;;;4.30;2.28;;;5.00;1.00;;;;;;5014827;28;20647;-88
2022/12/27 04:05:01;;;;;;;5.85;2.60;;;5.00;1.00;;;;;;5010214;28;20207;-88
2022/12/27 04:07:29;;;;;;;9.00;4.27;;;5.00;1.00;;;;;;5002391;28;20333;-88
2022/12/27 04:34:56;;;;;;;6.85;2.25;;;5.30;1.00;;;;;;5007110;28;20233;-87
2022/12/27 04:37:25;;;;;;;9.43;2.50;;;5.30;1.00;;;;;;5010130;28;20262;-88
2022/12/27 04:56:34;;;;;;;6.03;1.85;;;5.20;1.00;;;;;;5011787;28;20281;-88
2022/12/27 05:04:29;;;;;;;5.70;2.50;;;5.40;1.00;;;;;;5007966;28;20681;-88
2022/12/27 05:06:55;;;;;;;5.60;2.22;;;5.40;99.90;;;;;;5010256;28;20658;-88
2022/12/27 05:14:49;;;;;;;8.02;2.30;;;5.30;99.90;;;;;;5006091;28;20714;-87
2022/12/27 05:17:15;;;;;;;10.13;2.90;;;5.40;99.90;;;;;;4993345;28;20282;-88
2022/12/27 05:19:41;;;;;;;7.90;2.60;;;5.40;99.90;;;;;;5009679;28;20221;-88
2022/12/27 05:27:34;;;;;;;8.05;2.25;;;5.30;99.90;;;;;;5007745;28;20203;-88
2022/12/27 05:30:00;;;;;;;5.97;2.80;;;5.30;99.90;;;;;;5007717;28;20183;-87
2022/12/27 05:32:25;;;;;;;7.70;2.70;;;5.20;99.90;;;;;;5011242;28;20889;-88
2022/12/27 05:34:54;;;;;;;5.93;3.03;;;5.20;99.90;;;;;;5009121;28;21186;-87
2022/12/27 05:37:19;;;;;;;8.82;2.55;;;5.20;99.90;;;;;;5011655;28;20219;-88
2022/12/27 05:39:45;;;;;;;5.60;2.47;;;5.20;99.90;;;;;;5010760;28;20290;-88
2022/12/27 05:42:14;;;;;;;9.30;3.30;;;5.20;99.90;;;;;;5004305;28;20218;-89
2022/12/27 05:44:39;;;;;;;8.18;3.85;;;5.10;99.90;;;;;;5037381;28;20282;-88
2022/12/27 05:47:05;;;;;;;10.93;2.37;;;5.20;99.90;;;;;;5038655;28;20175;-87
2022/12/27 05:49:33;;;;;;;7.10;2.83;;;5.10;1.00;;;;;;5023111;28;20207;-87
2022/12/27 05:51:58;;;;;;;6.38;2.97;;;5.10;99.90;;;;;;5013963;28;20298;-88
2022/12/27 05:54:27;;;;;;;16.70;3.23;;;5.10;99.90;;;;;;4993387;28;20205;-88
2022/12/27 05:56:55;;;;;;;18.50;3.22;;;5.00;99.90;;;;;;4977464;28;20198;-87
2022/12/27 05:59:21;;;;;;;9.10;2.50;;;5.00;1.00;;;;;;5006941;28;20611;-87
2022/12/27 06:01:50;;;;;;;11.67;3.33;;;5.00;1.00;;;;;;5009948;28;20191;-88
2022/12/27 06:04:23;;;;;;;5.50;3.35;;;4.90;1.00;;;;;;4996114;28;20341;-88
2022/12/27 06:06:49;;;;;;;5.70;2.50;;;4.90;1.00;;;;;;5003991;28;20195;-88
2022/12/27 06:09:15;;;;;;;9.43;2.63;;;4.90;1.00;;;;;;5004632;28;20260;-88
2022/12/27 06:11:40;;;;;;;8.60;2.53;;;4.90;1.00;;;;;;5007862;28;20196;-87
2022/12/27 06:14:06;;;;;;;10.77;2.30;;;4.90;1.00;;;;;;5011957;28;20441;-88
2022/12/27 06:16:31;;;;;;;7.90;4.00;;;4.90;1.00;;;;;;5008760;28;20187;-87
2022/12/27 06:19:00;;;;;;;7.77;2.53;;;4.80;1.00;;;;;;4994972;28;20237;-88
2022/12/27 06:21:25;;;;;;;8.90;2.90;;;4.90;1.00;;;;;;5005819;28;20179;-88
2022/12/27 06:23:51;;;;;;;8.17;3.07;;;4.90;1.00;;;;;;5009711;28;20556;-88
2022/12/27 06:26:20;;;;;;;10.27;2.60;;;4.90;1.00;;;;;;4978665;28;20684;-88
2022/12/27 06:28:48;;;;;;;6.60;2.20;;;4.90;1.00;;;;;;5010383;28;20219;-87
2022/12/27 06:31:14;;;;;;;10.25;2.72;;;4.90;1.00;;;;;;5008549;28;20178;-88
2022/12/27 06:33:40;;;;;;;5.43;2.53;;;4.80;1.00;;;;;;5005029;28;22283;-87
2022/12/27 06:36:07;;;;;;;7.20;2.77;;;4.80;1.00;;;;;;4992461;28;20637;-88
2022/12/27 06:38:33;;;;;;;9.55;3.00;;;4.80;1.00;;;;;;5016386;28;20207;-87
2022/12/27 06:41:03;;;;;;;5.73;2.70;;;4.80;1.00;;;;;;5000880;28;20190;-88
2022/12/27 06:43:29;;;;;;;13.35;3.00;;;4.80;1.00;;;;;;5009514;28;20521;-88
2022/12/27 06:46:00;;;;;;;8.37;2.67;;;4.80;1.00;;;;;;5011343;28;20289;-88
2022/12/27 06:48:26;;;;;;;7.82;2.63;;;4.80;1.00;;;;;;5012240;28;20465;-87
2022/12/27 06:50:55;;;;;;;7.88;3.60;;;4.80;1.00;;;;;;5006391;28;20175;-88
2022/12/27 06:53:20;;;;;;;5.60;4.03;;;4.80;1.00;;;;;;5010158;28;20489;-88
2022/12/27 06:55:46;;;;;;;10.97;3.67;;;4.80;1.00;;;;;;5007346;28;20186;-88
2022/12/27 06:58:12;;;;;;;7.97;2.90;;;4.80;1.00;;;;;;5001771;28;20286;-88
2022/12/27 07:00:38;;;;;;;5.70;2.60;;;4.80;1.00;;;;;;5003695;28;20442;-88
2022/12/27 07:03:07;;;;;;;7.25;3.22;;;4.80;1.00;;;;;;5002456;28;20437;-87
2022/12/27 07:05:36;;;;;;;7.78;2.83;;;4.80;1.00;;;;;;5001468;28;20214;-88
2022/12/27 07:08:02;;;;;;;6.78;2.72;;;4.80;1.00;;;;;;5005383;28;20205;-88
2022/12/27 07:10:27;;;;;;;12.67;2.93;;;4.80;1.00;;;;;;5011676;28;20270;-87
2022/12/27 07:12:55;;;;;;;10.13;3.03;;;4.90;1.00;;;;;;5003182;28;20448;-87
2022/12/27 07:15:22;;;;;;;4.13;3.00;;;4.90;1.00;;;;;;5012453;28;20238;-87
2022/12/27 07:17:47;;;;;;;5.85;3.00;;;5.00;1.00;;;;;;5000931;28;20234;-88
2022/12/27 07:20:13;;;;;;;10.10;2.60;;;4.90;1.00;;;;;;4999835;28;20278;-89
2022/12/27 07:22:38;;;;;;;4.40;2.20;;;4.90;1.00;;;;;;5005574;28;20221;-87
2022/12/27 07:25:05;;;;;;;6.80;2.53;;;4.90;1.00;;;;;;4999326;28;20218;-87
2022/12/27 07:27:36;;;;;;;3.35;2.10;;;4.90;1.00;;;;;;5003007;28;20776;-87
2022/12/27 07:30:04;;;;;;;6.00;2.90;;;4.90;1.00;;;;;;5003663;28;20214;-88
2022/12/27 07:32:41;;;;;;;6.30;2.10;;;4.90;1.00;;;;;;5010740;28;20559;-87
2022/12/27 07:35:06;;;;;;;8.77;2.42;;;4.90;1.00;;;;;;5010326;28;20187;-87
2022/12/27 07:37:35;;;;;;;11.77;2.77;;;5.00;1.00;;;;;;5008403;28;20187;-87
2022/12/27 07:40:06;;;;;;;10.60;2.47;;;5.10;1.00;;;;;;4999839;28;20870;-87
2022/12/27 07:42:40;;;;;;;5.20;2.30;;;5.20;1.00;;;;;;4996749;28;20537;-87
2022/12/27 07:45:06;;;;;;;5.68;2.13;;;5.20;1.00;;;;;;5005778;28;20266;-87
2022/12/27 07:47:42;;;;;;;6.85;2.67;;;5.30;1.00;;;;;;5000871;28;20186;-87
2022/12/27 07:50:08;;;;;;;11.65;3.05;;;5.30;1.00;;;;;;4992655;28;20603;-87
2022/12/27 07:52:37;;;;;;;10.38;2.42;;;5.40;1.00;;;;;;5003495;28;20194;-87
2022/12/27 07:55:03;;;;;;;5.25;2.67;;;5.40;1.00;;;;;;5000173;28;20179;-87
2022/12/27 07:57:28;;;;;;;8.00;2.77;;;5.50;99.90;;;;;;5011795;28;20565;-88
2022/12/27 07:59:56;;;;;;;7.80;3.13;;;5.50;99.90;;;;;;5006417;28;20437;-88
2022/12/27 08:02:25;;;;;;;5.78;2.28;;;5.50;99.90;;;;;;4997099;28;20205;-88
2022/12/27 08:04:50;;;;;;;6.25;2.70;;;5.60;99.90;;;;;;4999974;28;20215;-87
2022/12/27 08:07:23;;;;;;;5.83;2.73;;;5.60;99.90;;;;;;5002786;28;20175;-88
2022/12/27 08:09:52;;;;;;;8.82;3.15;;;5.70;99.90;;;;;;4999964;28;20295;-88
2022/12/27 08:12:17;;;;;;;11.32;2.55;;;5.70;99.90;;;;;;5013279;28;20183;-87
2022/12/27 08:14:43;;;;;;;8.53;2.67;;;5.80;99.90;;;;;;5004172;28;20557;-88
2022/12/27 08:17:21;;;;;;;5.23;2.13;;;5.80;99.90;;;;;;4995273;28;20639;-89
2022/12/27 08:19:53;;;;;;;4.25;2.00;;;5.90;99.90;;;;;;4989818;28;20206;-89
2022/12/27 08:22:19;;;;;;;7.75;2.30;;;5.90;99.90;;;;;;4997604;28;20560;-88
2022/12/27 08:24:45;;;;;;;6.05;2.55;;;6.10;99.90;;;;;;5004619;28;20782;-89
2022/12/27 08:27:11;;;;;;;11.37;3.77;;;6.30;99.90;;;;;;4999094;28;20366;-87
2022/12/27 08:29:43;;;;;;;9.55;2.22;;;6.60;99.90;;;;;;5014560;28;20250;-88
2022/12/27 08:32:09;;;;;;;14.80;2.70;;;7.10;99.90;;;;;;5002928;28;20270;-88
2022/12/27 08:34:34;;;;;;;4.73;1.83;;;7.50;1.00;;;;;;5000470;28;20588;-88
2022/12/27 08:37:00;;;;;;;4.87;2.20;;;7.90;99.90;;;;;;4995647;28;22150;-88
2022/12/27 08:39:26;;;;;;;9.80;3.30;;;8.10;99.90;;;;;;4996528;28;20214;-90
2022/12/27 08:41:52;;;;;;;6.53;2.00;;;8.10;99.90;;;;;;4996371;28;20516;-89
2022/12/27 08:44:18;;;;;;;10.30;2.67;;;8.10;1.00;;;;;;5012730;28;20473;-88
2022/12/27 08:46:44;;;;;;;8.40;2.80;;;8.10;99.90;;;;;;4996200;28;20433;-89
2022/12/27 08:49:09;;;;;;;6.50;2.03;;;8.10;99.90;;;;;;5012947;28;20195;-88
2022/12/27 08:51:35;;;;;;;8.90;3.00;;;8.10;1.00;;;;;;5009321;28;20214;-87
2022/12/27 08:54:01;;;;;;;8.97;2.50;;;8.00;99.90;;;;;;4994971;28;20191;-87
2022/12/27 08:56:26;;;;;;;8.90;2.33;;;8.10;1.00;;;;;;5003946;28;20225;-87
2022/12/27 08:58:57;;;;;;;7.60;2.60;;;8.10;1.00;;;;;;4994990;28;20213;-88
2022/12/27 09:01:26;;;;;;;10.83;3.33;;;8.10;1.00;;;;;;4994922;28;20194;-85
2022/12/27 09:03:54;;;;;;;9.10;3.08;;;8.10;99.90;;;;;;5010929;28;20472;-85
2022/12/27 09:06:22;;;;;;;6.00;2.00;;;8.10;63.90;;;;;;4997015;28;20221;-84
2022/12/27 09:08:49;;;;;;;5.57;2.70;;;8.10;1.00;;;;;;4997174;28;20549;-84
2022/12/27 09:11:21;;;;;;;7.10;2.70;;;8.20;1.00;;;;;;5014613;28;20430;-84
2022/12/27 09:13:47;;;;;;;7.50;2.90;;;8.20;1.00;;;;;;5012105;28;20421;-84
2022/12/27 09:16:19;;;;;;;4.37;2.03;;;8.20;1.00;;;;;;4994292;28;20580;-87
2022/12/27 09:18:49;;;;;;;12.53;3.43;;;8.20;1.00;;;;;;5001932;28;20517;-89
2022/12/27 09:21:15;;;;;;;8.90;2.70;;;8.30;1.00;;;;;;5011873;28;20456;-87
2022/12/27 09:23:42;;;;;;;6.75;2.35;;;8.30;99.90;;;;;;4996576;28;20434;-88
2022/12/27 09:26:11;;;;;;;4.88;2.40;;;8.20;37.60;;;;;;4992059;28;20207;-87
2022/12/27 09:28:37;;;;;;;5.07;2.33;;;8.30;99.90;;;;;;5012263;28;20194;-87
2022/12/27 09:31:03;;;;;;;5.23;2.47;;;8.50;79.40;;;;;;5014388;28;20795;-88
2022/12/27 09:33:35;;;;;;;8.03;2.60;;;8.70;1.00;;;;;;5012542;28;20432;-88
2022/12/27 09:36:07;;;;;;;8.33;2.63;;;9.00;1.00;;;;;;5012712;28;20446;-87
2022/12/27 09:38:40;;;;;;;4.33;2.07;;;9.20;99.90;;;;;;5018132;28;20437;-90
2022/12/27 09:41:18;;;;;;;7.50;2.60;;;9.40;99.90;;;;;;5034787;28;20430;-88
2022/12/27 09:44:05;;;;;;;4.07;2.10;;;9.60;1.00;;;;;;5019340;28;20437;-90
2022/12/27 09:46:39;;;;;;;8.40;2.37;;;9.80;1.00;;;;;;5012169;28;20489;-88
2022/12/27 09:49:16;;;;;;;4.23;2.10;;;9.70;1.00;;;;;;4985963;28;20446;-88
2022/12/27 09:52:00;;;;;;;6.90;3.00;;;9.60;1.00;;;;;;4997335;28;20559;-90
2022/12/27 09:54:37;;;;;;;4.83;2.23;;;9.50;1.00;;;;;;5011592;28;20437;-89
2022/12/27 09:57:11;;;;;;;4.13;1.90;;;9.30;1.00;;;;;;4992917;28;20437;-90
2022/12/27 09:59:41;;;;;;;7.27;2.60;;;9.20;1.00;;;;;;5010104;28;20460;-88
2022/12/27 10:02:25;;;;;;;5.70;2.40;;;9.20;1.00;;;;;;4991319;28;20506;-88
2022/12/27 10:04:53;;;;;;;6.53;2.97;;;9.10;1.00;;;;;;4998034;28;20465;-88
2022/12/27 10:07:57;;;;;;;8.07;3.73;;;9.10;1.00;;;;;;5009390;28;20430;-86
2022/12/27 10:10:37;;;;;;;8.50;2.90;;;9.20;1.00;;;;;;5002878;28;20426;-85
2022/12/27 10:13:13;;;;;;;6.73;3.53;;;9.30;1.00;;;;;;5011286;28;20457;-86
2022/12/27 10:15:54;;;;;;;3.43;2.47;;;9.20;1.00;;;;;;5012048;28;20465;-86
2022/12/27 10:18:29;;;;;;;4.10;2.50;;;9.20;1.00;;;;;;5010076;28;20623;-86
2022/12/27 10:21:09;;;;;;;7.03;2.30;;;9.20;1.00;;;;;;5012813;28;20784;-87
2022/12/27 10:23:39;;;;;;;5.10;2.50;;;9.20;1.00;;;;;;5009181;28;20531;-87
2022/12/27 10:26:11;;;;;;;6.93;3.20;;;9.20;1.00;;;;;;5010817;28;20465;-88
2022/12/27 10:28:45;;;;;;;7.20;2.27;;;9.20;1.00;;;;;;4993537;28;20453;-88
2022/12/27 10:31:15;;;;;;;4.23;2.20;;;9.20;1.00;;;;;;5011293;28;20433;-88
2022/12/27 10:33:41;;;;;;;16.30;2.40;;;9.20;1.00;;;;;;5012530;28;20780;-87
2022/12/27 10:36:10;;;;;;;10.13;3.00;;;9.20;1.00;;;;;;5011242;28;21136;-87
2022/12/27 10:38:36;;;;;;;10.93;2.23;;;9.20;1.00;;;;;;4994479;28;20564;-88
2022/12/27 10:41:23;;;;;;;7.23;2.50;;;9.40;1.00;;;;;;5010463;28;20545;-88
2022/12/27 10:43:53;;;;;;;6.03;2.30;;;9.60;1.00;;;;;;5008194;28;20183;-88
2022/12/27 10:46:31;;;;;;;11.00;3.87;;;9.80;1.00;;;;;;4993616;28;20529;-88
2022/12/27 10:48:58;;;;;;;5.00;2.13;;;9.90;1.00;;;;;;4991120;28;20937;-88
2022/12/27 10:51:27;;;;;;;8.70;2.50;;;10.10;99.90;;;;;;5011147;28;20488;-88
2022/12/27 10:53:59;;;;;;;3.77;2.10;;;10.40;99.90;;;;;;5009155;28;20486;-88
2022/12/27 10:56:33;;;;;;;4.93;2.67;;;10.50;99.90;;;;;;5010968;28;20437;-88
2022/12/27 10:59:35;;;;;;;7.57;3.03;;;10.60;99.90;;;;;;4992898;28;20469;-87
2022/12/27 11:02:01;;;;;;;8.63;2.90;;;10.60;99.90;;;;;;5004775;28;20516;-89
2022/12/27 11:04:28;;;;;;;5.13;2.03;;;10.50;95.50;;;;;;4992219;28;20560;-87
2022/12/27 11:07:03;;;;;;;6.63;2.10;;;10.40;83.90;;;;;;4993426;28;20265;-88
2022/12/27 11:09:37;;;;;;;7.37;2.40;;;10.50;92.00;;;;;;4994157;28;20640;-87
2022/12/27 11:12:23;;;;;;;3.30;1.80;;;10.50;24.40;;;;;;4994608;28;20417;-88
2022/12/27 11:15:05;;;;;;;4.37;2.50;;;10.50;1.00;;;;;;5007749;28;20988;-87
2022/12/27 11:17:49;;;;;;;4.57;2.47;;;10.70;1.00;;;;;;5008978;28;20435;-87
2022/12/27 11:20:20;;;;;;;6.20;2.10;;;10.80;1.00;;;;;;4992797;28;20856;-87
2022/12/27 11:22:56;;;;;;;4.87;2.53;;;10.70;1.00;;;;;;4994572;28;20448;-87
2022/12/27 11:25:24;;;;;;;5.23;2.30;;;10.60;1.00;;;;;;5010711;28;20469;-86
2022/12/27 11:28:27;;;;;;;5.00;1.90;;;10.50;1.00;;;;;;5012509;28;20511;-86
2022/12/27 11:31:05;;;;;;;9.50;2.87;;;10.60;1.00;;;;;;4993940;28;20440;-88
2022/12/27 11:33:49;;;;;;;5.43;2.00;;;10.60;1.00;;;;;;4992019;28;20437;-88
2022/12/27 11:36:24;;;;;;;6.30;1.83;;;10.70;1.00;;;;;;5012073;28;20438;-88
2022/12/27 11:38:50;;;;;;;5.80;2.03;;;10.80;1.00;;;;;;4997450;28;20456;-88
2022/12/27 11:41:31;;;;;;;5.47;2.37;;;10.80;1.00;;;;;;5015606;28;20851;-87
2022/12/27 11:44:08;;;;;;;7.60;1.87;;;11.00;1.00;;;;;;5008302;28;20420;-88
2022/12/27 11:46:37;;;;;;;8.17;3.20;;;11.30;1.00;;;;;;4997948;28;20436;-88
2022/12/27 11:49:06;;;;;;;8.40;3.17;;;11.60;1.00;;;;;;4998200;28;20966;-88
2022/12/27 11:51:59;;;;;;;8.77;2.60;;;11.90;1.00;;;;;;5014885;28;20457;-89
2022/12/27 11:54:34;;;;;;;4.70;2.60;;;12.10;1.00;;;;;;5008933;28;20424;-88
2022/12/27 11:57:22;;;;;;;8.93;2.33;;;12.80;1.00;;;;;;4995996;28;20503;-87
2022/12/27 12:00:14;;;;;;;6.57;2.57;;;13.00;1.00;;;;;;5015570;28;20821;-88
2022/12/27 12:03:28;;;;;;;5.73;1.90;;;13.00;1.00;;;;;;4997447;28;20425;-88
2022/12/27 12:06:11;;;;;;;5.37;2.20;;;12.80;1.00;;;;;;4997893;28;20463;-88
2022/12/27 12:08:55;;;;;;;5.13;1.83;;;12.40;1.00;;;;;;5015702;28;20436;-88
2022/12/27 12:11:53;;;;;;;5.10;1.80;;;12.10;1.00;;;;;;4998102;28;20795;-88
2022/12/27 12:14:59;;;;;;;8.13;2.37;;;11.80;1.00;;;;;;5008763;28;20477;-88
2022/12/27 12:18:02;;;;;;;7.53;2.13;;;11.50;1.00;;;;;;5015492;28;20437;-88
2022/12/27 12:20:58;;;;;;;5.03;2.37;;;11.40;1.00;;;;;;4985752;28;20515;-88
2022/12/27 12:23:39;;;;;;;5.63;2.13;;;11.30;1.00;;;;;;5011303;28;20513;-87
2022/12/27 12:26:47;;;;;;;3.50;2.30;;;11.10;1.00;;;;;;5007844;28;21039;-88
2022/12/27 12:29:54;;;;;;;6.33;2.47;;;11.00;1.00;;;;;;4942105;28;20540;-88
2022/12/27 12:32:51;;;;;;;5.57;2.03;;;10.90;1.00;;;;;;5014674;28;20422;-88
2022/12/27 12:35:45;;;;;;;4.30;2.20;;;10.90;1.00;;;;;;4999598;28;20762;-89
2022/12/27 12:38:22;;;;;;;3.87;2.13;;;10.90;1.00;;;;;;5014215;28;20504;-88
2022/12/27 12:41:17;;;;;;;13.10;3.30;;;10.80;1.00;;;;;;4998191;28;20429;-87
2022/12/27 12:43:50;;;;;;;7.03;2.33;;;10.70;1.00;;;;;;5012659;28;20425;-87
2022/12/27 12:46:46;;;;;;;5.33;2.13;;;10.60;1.00;;;;;;4994125;28;20473;-88
2022/12/27 12:49:32;;;;;;;6.87;3.30;;;10.60;1.00;;;;;;4992871;28;20450;-88
2022/12/27 12:52:28;;;;;;;8.03;2.80;;;10.60;1.00;;;;;;4978011;28;20458;-88
2022/12/27 12:55:11;;;;;;;9.23;2.30;;;10.50;1.00;;;;;;5011565;28;20433;-88
2022/12/27 12:57:59;;;;;;;17.63;3.50;;;10.40;1.00;;;;;;4994879;28;20452;-88
2022/12/27 13:00:55;;;;;;;9.43;2.63;;;10.30;1.00;;;;;;4995881;28;20852;-88
2022/12/27 13:03:21;;;;;;;6.40;2.70;;;10.40;1.00;;;;;;5014138;28;20445;-88
2022/12/27 13:06:20;;;;;;;9.47;2.63;;;10.50;1.00;;;;;;5014195;28;20473;-88
2022/12/27 13:09:23;;;;;;;8.93;2.87;;;10.50;1.00;;;;;;5011663;28;20210;-88
2022/12/27 13:12:00;;;;;;;7.20;2.80;;;10.50;1.00;;;;;;4995914;28;20418;-88
2022/12/27 13:14:54;;;;;;;5.80;2.53;;;10.50;1.00;;;;;;4992407;28;20779;-88
2022/12/27 13:17:34;;;;;;;8.07;3.43;;;10.50;1.00;;;;;;5009597;28;20437;-88
2022/12/27 13:20:06;;;;;;;9.57;3.93;;;10.50;1.00;;;;;;4992638;28;21014;-88
2022/12/27 13:22:47;;;;;;;7.33;3.70;;;10.50;1.00;;;;;;5011962;28;20465;-88
2022/12/27 13:25:18;;;;;;;12.73;3.13;;;10.40;1.00;;;;;;5013523;28;20519;-88
2022/12/27 13:28:18;;;;;;;7.67;2.77;;;10.40;1.00;;;;;;5007876;28;20427;-87
2022/12/27 13:31:28;;;;;;;10.23;3.93;;;10.40;1.00;;;;;;5012324;28;20519;-88
2022/12/27 13:34:16;;;;;;;4.33;2.63;;;10.30;1.00;;;;;;4972622;28;20425;-88
2022/12/27 13:37:05;;;;;;;7.73;3.67;;;10.30;1.00;;;;;;5036191;28;20422;-88
2022/12/27 13:39:46;;;;;;;5.80;2.37;;;10.30;1.00;;;;;;5039115;28;20450;-86
2022/12/27 13:42:43;;;;;;;10.87;3.37;;;10.30;1.00;;;;;;5016401;28;20413;-86
2022/12/27 13:45:31;;;;;;;7.90;2.60;;;10.30;1.00;;;;;;5013655;28;20477;-87
2022/12/27 13:48:19;;;;;;;6.23;2.90;;;10.30;1.00;;;;;;5014606;28;20576;-86
2022/12/27 13:51:22;;;;;;;9.60;3.10;;;10.20;1.00;;;;;;5014405;28;20402;-87
2022/12/27 13:53:51;;;;;;;5.00;3.40;;;10.20;1.00;;;;;;5014636;28;20468;-86
2022/12/27 13:56:34;;;;;;;6.83;2.53;;;10.20;1.00;;;;;;5013976;28;20422;-86
2022/12/27 13:59:27;;;;;;;9.20;3.63;;;10.10;1.00;;;;;;4992567;28;20647;-85
2022/12/27 14:02:28;;;;;;;5.00;2.20;;;10.10;1.00;;;;;;5012783;28;20472;-85
2022/12/27 14:04:59;;;;;;;7.33;2.50;;;10.10;1.00;;;;;;5015229;28;20476;-85
2022/12/27 14:07:46;;;;;;;7.67;3.10;;;10.10;1.00;;;;;;4997018;28;20480;-86
2022/12/27 14:10:34;;;;;;;6.17;2.70;;;10.10;1.00;;;;;;4991543;28;20437;-85
2022/12/27 14:13:07;;;;;;;8.37;2.60;;;10.10;1.00;;;;;;5007054;28;20437;-85
2022/12/27 14:16:02;;;;;;;9.93;2.70;;;10.10;1.00;;;;;;5012945;28;20441;-86
2022/12/27 14:18:55;;;;;;;7.87;2.70;;;10.10;1.00;;;;;;5010992;28;20499;-85
2022/12/27 14:21:45;;;;;;;8.80;2.40;;;10.20;1.00;;;;;;4996139;28;20430;-86
2022/12/27 14:24:33;;;;;;;10.10;2.40;;;10.10;1.00;;;;;;4995774;28;20444;-85
2022/12/27 14:27:23;;;;;;;7.07;2.20;;;10.10;1.00;;;;;;4989966;28;20454;-85
2022/12/27 14:30:07;;;;;;;2.83;1.70;;;10.10;1.00;;;;;;4994597;28;20446;-85
2022/12/27 14:32:47;;;;;;;8.70;2.30;;;10.00;1.00;;;;;;5013403;28;20429;-84
2022/12/27 14:35:51;;;;;;;4.67;1.80;;;10.00;1.00;;;;;;5013968;28;20437;-85
2022/12/27 14:38:40;;;;;;;7.53;2.77;;;9.90;1.00;;;;;;5014517;28;20434;-85
2022/12/27 14:41:35;;;;;;;9.67;3.10;;;9.90;1.00;;;;;;5012438;28;20593;-86
2022/12/27 14:44:03;;;;;;;3.97;2.20;;;9.80;1.00;;;;;;5006655;28;20418;-85
2022/12/27 14:47:00;;;;;;;11.13;1.93;;;9.80;1.00;;;;;;4996282;28;20502;-86
2022/12/27 14:49:39;;;;;;;8.90;2.40;;;9.70;1.00;;;;;;5015615;28;20497;-86
2022/12/27 14:52:44;;;;;;;10.03;3.30;;;9.70;1.00;;;;;;5014724;28;20473;-85
2022/12/27 14:55:35;;;;;;;5.90;2.10;;;9.60;18.30;;;;;;4995344;28;20859;-88
2022/12/27 14:58:39;;;;;;;4.80;2.50;;;9.60;32.00;;;;;;4995940;28;20854;-86
2022/12/27 15:01:16;;;;;;;3.20;1.70;;;9.50;39.50;;;;;;4996145;28;20929;-86
2022/12/27 15:04:10;;;;;;;10.80;2.40;;;9.50;58.30;;;;;;5014365;28;20398;-85
2022/12/27 15:07:08;;;;;;;4.70;1.67;;;9.40;92.10;;;;;;5013096;28;20469;-86
2022/12/27 15:10:11;;;;;;;6.30;2.40;;;9.40;99.90;;;;;;4991006;28;20468;-86
2022/12/27 15:12:50;;;;;;;4.90;2.20;;;9.30;97.30;;;;;;5012211;28;20410;-87
2022/12/27 15:15:40;;;;;;;4.80;2.17;;;9.20;99.90;;;;;;5012527;28;20437;-87
2022/12/27 15:18:25;;;;;;;10.87;2.23;;;9.20;99.90;;;;;;4994579;28;20482;-86
2022/12/27 15:21:20;;;;;;;4.40;1.70;;;9.20;99.90;;;;;;4995898;28;20430;-86
2022/12/27 15:23:53;;;;;;;7.73;1.70;;;9.10;99.90;;;;;;4990898;28;20438;-86
2022/12/27 15:26:35;;;;;;;6.50;2.40;;;9.10;99.90;;;;;;4989977;28;20470;-86